This is the latest recevied weather packets stored in our database for station/object F4ELU-13. If no packets are shown the sender has not sent any weather packets the latest 10 day(s).
| Time | Temp. | Humidity | Pressure | Rain* | Wind** | Luminosity | Snow |
|---|---|---|---|---|---|---|---|
| 1778083743 | 11.67° C | 99% | 1009.6 hPa | 0.25 mm | - | - | - |
| 1778083203 | 11.11° C | 99% | 1009.6 hPa | 0.25 mm | - | - | - |
| 1778082843 | 11.11° C | 99% | 1009.6 hPa | 3.3 mm | - | - | - |
| 1778082303 | 11.11° C | 99% | 1009.7 hPa | 7.11 mm | - | - | - |
| 1778081763 | 10.56° C | 99% | 1009.9 hPa | 7.87 mm | - | - | - |
| 1778081223 | 10.56° C | 99% | 1009.5 hPa | 7.87 mm | - | - | - |
| 1778080683 | 10.56° C | 99% | 1009.7 hPa | 7.87 mm | - | - | - |
| 1778080143 | 10.56° C | 98% | 1009.5 hPa | 7.62 mm | - | - | - |
| 1778079603 | 10.56° C | 97% | 1009.5 hPa | 7.62 mm | - | - | - |
| 1778079244 | 11.11° C | 95% | 1009.7 hPa | 4.57 mm | - | - | - |
| 1778078703 | 11.67° C | 92% | 1009.6 hPa | 0.51 mm | - | - | - |
| 1778078163 | 12.78° C | 85% | 1009.1 hPa | 0 mm | - | - | - |
| 1778077623 | 13.33° C | 82% | 1009.1 hPa | 0 mm | - | - | - |
| 1778077083 | 15.56° C | 76% | 1009 hPa | 0 mm | - | - | - |
| 1778076543 | 15.56° C | 74% | 1008.7 hPa | 0 mm | - | - | - |
| 1778076003 | 16.11° C | 72% | 1008.8 hPa | 0 mm | - | - | - |
| 1778075643 | 16.67° C | 74% | 1008.8 hPa | 0 mm | - | - | - |
| 1778075103 | 16.11° C | 73% | 1008.8 hPa | 0 mm | - | - | - |
| 1778074563 | 16.67° C | 76% | 1008.8 hPa | 0 mm | - | - | - |
| 1778074023 | 15.56° C | 80% | 1009 hPa | 0 mm | - | - | - |
| 1778073483 | 15° C | 81% | 1009.1 hPa | 0 mm | - | - | - |
| 1778072943 | 14.44° C | 82% | 1009 hPa | 0 mm | - | - | - |
| 1778072403 | 13.89° C | 82% | 1009.1 hPa | 0 mm | - | - | - |
| 1778072043 | 14.44° C | 81% | 1009 hPa | 0 mm | - | - | - |
| 1778071503 | 14.44° C | 83% | 1009 hPa | 0 mm | - | - | - |
* Rain latest hour (hover to see other rain measurements)
** Current wind speed in m/s (hover to see current wind gust speed)